Time;durP1;ratioP1;P1;durP2;ratioP2;P2;SDS_P1;SDS_P2;PMS_P1;PMS_P2;Temp;Humidity;BMP_temperature;BMP_pressure;BME280_temperature;BME280_humidity;BME280_pressure;Samples;Min_cycle;Max_cycle;Signal;HPM_P1;HPM_P2
2022/02/02 00:00:41;;;;;;;22.57;4.87;;;7.50;93.00;;;;;;5074636;28;20234;-59
2022/02/02 00:03:10;;;;;;;26.70;4.50;;;7.50;93.00;;;;;;5074653;28;20225;-61
2022/02/02 00:05:47;;;;;;;23.90;5.10;;;7.50;73.80;;;;;;5074806;28;20293;-61
2022/02/02 00:08:19;;;;;;;25.00;5.50;;;7.40;91.60;;;;;;5074492;28;20295;-61
2022/02/02 00:11:19;;;;;;;18.23;4.00;;;7.50;64.50;;;;;;5074640;28;20300;-61
2022/02/02 00:13:54;;;;;;;27.57;5.17;;;7.50;57.20;;;;;;5074506;28;20215;-61
2022/02/02 00:16:37;;;;;;;24.83;4.30;;;7.40;46.90;;;;;;5074953;28;20849;-60
2022/02/02 00:19:12;;;;;;;17.07;4.33;;;7.50;43.60;;;;;;5075167;28;20319;-61
2022/02/02 00:21:44;;;;;;;22.67;5.17;;;7.50;27.70;;;;;;5075006;28;20232;-61
2022/02/02 00:24:20;;;;;;;26.40;5.30;;;7.50;28.60;;;;;;5074633;28;20209;-61
2022/02/02 00:26:48;;;;;;;33.43;4.40;;;7.50;20.20;;;;;;5075150;28;20233;-62
2022/02/02 00:29:20;;;;;;;25.80;4.50;;;7.40;19.00;;;;;;5074272;28;20258;-61
2022/02/02 00:31:52;;;;;;;22.77;4.77;;;7.40;22.30;;;;;;5074015;28;20716;-61
2022/02/02 00:34:23;;;;;;;25.17;4.27;;;7.40;20.90;;;;;;5074115;28;20224;-61
2022/02/02 00:36:55;;;;;;;23.30;3.80;;;7.50;19.30;;;;;;5074134;28;20236;-62
2022/02/02 00:39:22;;;;;;;24.70;4.63;;;7.40;20.00;;;;;;5074181;28;20221;-61
2022/02/02 00:41:49;;;;;;;23.47;4.03;;;7.40;7.80;;;;;;5074415;28;20225;-61
2022/02/02 00:44:18;;;;;;;24.50;4.80;;;7.40;8.00;;;;;;5074280;28;20214;-61
2022/02/02 00:46:45;;;;;;;27.40;4.90;;;7.40;10.10;;;;;;5073827;28;20210;-61
2022/02/02 00:49:13;;;;;;;27.83;4.53;;;7.40;11.80;;;;;;5073897;28;20206;-61
2022/02/02 00:51:44;;;;;;;24.47;4.03;;;7.40;15.60;;;;;;5073399;28;20237;-61
2022/02/02 00:54:12;;;;;;;22.57;3.97;;;7.30;13.80;;;;;;5073658;28;20714;-61
2022/02/02 00:56:39;;;;;;;23.23;4.73;;;7.20;13.70;;;;;;5073391;28;20206;-60
2022/02/02 00:59:06;;;;;;;27.57;5.00;;;7.10;21.50;;;;;;5073358;28;20233;-60
2022/02/02 01:01:34;;;;;;;24.13;4.30;;;7.20;21.40;;;;;;5073526;28;20837;-60
2022/02/02 01:04:00;;;;;;;19.73;3.87;;;7.20;21.00;;;;;;5072588;28;20668;-60
2022/02/02 01:06:30;;;;;;;21.47;3.60;;;7.10;16.40;;;;;;5073098;28;20656;-61
2022/02/02 01:09:19;;;;;;;18.03;4.53;;;7.10;10.60;;;;;;5073288;28;20208;-61
2022/02/02 01:11:54;;;;;;;21.47;3.90;;;7.00;16.30;;;;;;5073747;28;20225;-61
2022/02/02 01:19:59;;;;;;;20.60;4.20;;;6.90;1.00;;;;;;5072931;28;20256;-60
2022/02/02 01:27:47;;;;;;;25.90;4.07;;;6.90;1.00;;;;;;5073229;28;20235;-60
2022/02/02 01:28:10;;;;;;;20.27;4.40;;;7.00;1.00;;;;;;5072531;28;20212;-61
2022/02/02 01:30:37;;;;;;;22.87;4.27;;;7.00;1.00;;;;;;5072973;28;20212;-60
2022/02/02 01:33:06;;;;;;;18.63;3.80;;;7.00;1.00;;;;;;5072538;28;20727;-60
2022/02/02 01:35:33;;;;;;;22.20;4.47;;;7.00;1.00;;;;;;5073018;28;20622;-60
2022/02/02 01:37:59;;;;;;;18.10;4.30;;;7.00;1.00;;;;;;5072662;28;20208;-60
2022/02/02 01:40:30;;;;;;;22.67;4.33;;;7.00;1.00;;;;;;5072356;28;20224;-60
2022/02/02 01:43:01;;;;;;;28.97;4.73;;;7.00;9.70;;;;;;5072936;28;20272;-61
2022/02/02 01:45:33;;;;;;;23.63;4.63;;;7.10;13.40;;;;;;5072697;28;20583;-60
2022/02/02 01:48:14;;;;;;;32.57;4.50;;;7.00;16.20;;;;;;5072610;28;20205;-60
2022/02/02 01:51:03;;;;;;;27.07;4.77;;;7.00;28.10;;;;;;5072722;28;20294;-61
2022/02/02 01:53:42;;;;;;;15.23;3.50;;;7.00;30.70;;;;;;5072601;28;20692;-62
2022/02/02 01:56:11;;;;;;;30.13;4.97;;;7.00;50.40;;;;;;5072590;28;20266;-61
2022/02/02 01:59:00;;;;;;;26.27;4.73;;;7.00;54.30;;;;;;5072189;28;20675;-59
2022/02/02 02:01:27;;;;;;;22.37;5.10;;;7.00;60.10;;;;;;5072149;28;20224;-61
2022/02/02 02:03:54;;;;;;;22.93;4.70;;;7.00;60.90;;;;;;5072434;28;20610;-60
2022/02/02 02:06:22;;;;;;;27.60;5.60;;;6.90;57.90;;;;;;5072268;28;20201;-61
2022/02/02 02:08:49;;;;;;;28.13;5.33;;;7.00;59.50;;;;;;5072500;28;20216;-61
2022/02/02 02:11:18;;;;;;;29.93;5.10;;;7.00;56.10;;;;;;5071881;28;20205;-58
2022/02/02 02:16:38;;;;;;;22.73;5.03;;;7.00;52.90;;;;;;5035166;28;20278;-61
2022/02/02 02:19:04;;;;;;;30.20;4.50;;;7.00;54.70;;;;;;5072165;28;20301;-60
2022/02/02 02:21:32;;;;;;;31.33;5.63;;;6.90;56.90;;;;;;5072045;28;20229;-60
2022/02/02 02:24:01;;;;;;;26.00;5.07;;;7.00;53.90;;;;;;5072180;28;20679;-61
2022/02/02 02:26:29;;;;;;;24.77;4.90;;;7.00;56.60;;;;;;5071501;28;20236;-60
2022/02/02 02:29:15;;;;;;;30.07;4.83;;;6.90;68.70;;;;;;5071958;28;20205;-62
2022/02/02 02:31:52;;;;;;;25.77;4.97;;;6.90;78.40;;;;;;5071876;28;20227;-60
2022/02/02 02:34:34;;;;;;;30.80;4.93;;;6.90;74.70;;;;;;5072192;28;20227;-61
2022/02/02 02:39:53;;;;;;;31.27;5.37;;;6.80;78.90;;;;;;5068245;28;20225;-61
2022/02/02 02:56:02;;;;;;;21.83;4.87;;;6.80;93.60;;;;;;5072215;28;20207;-61
2022/02/02 03:01:24;;;;;;;33.67;5.40;;;6.80;96.80;;;;;;5070863;28;20335;-62
2022/02/02 03:31:46;;;;;;;31.03;5.10;;;6.90;99.90;;;;;;5075212;28;20267;-61
2022/02/02 03:51:07;;;;;;;29.90;5.43;;;6.60;99.90;;;;;;5075021;28;20204;-62
2022/02/02 03:56:31;;;;;;;32.73;5.40;;;6.50;99.90;;;;;;5074965;28;20238;-61
2022/02/02 03:59:28;;;;;;;28.63;5.77;;;6.50;99.90;;;;;;5075216;28;20194;-63
2022/02/02 04:02:17;;;;;;;32.10;6.27;;;6.50;99.90;;;;;;5074685;28;20702;-61
2022/02/02 04:04:52;;;;;;;33.20;6.03;;;6.50;99.90;;;;;;5075206;28;20209;-62
2022/02/02 04:07:21;;;;;;;34.67;6.27;;;6.50;99.90;;;;;;5075079;28;20298;-61
2022/02/02 04:09:49;;;;;;;31.20;5.47;;;6.60;99.90;;;;;;5074459;28;20201;-60
2022/02/02 04:12:29;;;;;;;23.43;4.97;;;6.60;99.90;;;;;;5074373;28;20271;-61
2022/02/02 04:17:56;;;;;;;31.80;5.43;;;6.60;99.90;;;;;;5048483;28;20294;-61
2022/02/02 04:56:12;;;;;;;30.93;6.17;;;6.70;81.50;;;;;;5073380;28;20219;-60
2022/02/02 04:58:49;;;;;;;35.97;9.67;;;6.70;79.70;;;;;;5073515;28;20239;-58
2022/02/02 05:04:41;;;;;;;26.20;4.77;;;6.60;91.50;;;;;;5011469;28;20206;-58
2022/02/02 05:07:14;;;;;;;23.97;5.63;;;6.70;79.60;;;;;;5011167;28;20207;-62
2022/02/02 05:09:50;;;;;;;20.67;4.33;;;6.70;67.00;;;;;;5052498;28;20197;-58
2022/02/02 05:13:05;;;;;;;28.83;5.20;;;6.70;57.50;;;;;;5074318;28;20220;-60
2022/02/02 05:18:23;;;;;;;32.00;5.47;;;6.60;74.40;;;;;;5062513;28;20199;-62
2022/02/02 05:21:15;;;;;;;21.87;4.47;;;6.70;65.70;;;;;;5073636;28;20324;-61
2022/02/02 05:43:33;;;;;;;21.00;4.20;;;6.70;1.00;;;;;;5072739;28;20275;-55
2022/02/02 05:48:40;;;;;;;29.90;5.03;;;6.70;1.00;;;;;;5070854;28;20240;-59
2022/02/02 05:51:23;;;;;;;21.40;4.13;;;6.70;4.80;;;;;;5054620;28;20203;-62
2022/02/02 05:53:50;;;;;;;27.60;4.50;;;6.60;7.10;;;;;;5052844;28;20286;-61
2022/02/02 05:56:19;;;;;;;26.17;5.40;;;6.60;6.60;;;;;;5051803;28;20202;-62
2022/02/02 05:58:48;;;;;;;30.17;5.43;;;6.70;11.80;;;;;;5052010;28;20210;-62
2022/02/02 06:01:15;;;;;;;23.57;5.20;;;6.60;9.90;;;;;;5053278;28;20230;-62
2022/02/02 06:03:53;;;;;;;25.17;5.27;;;6.60;7.50;;;;;;5054363;28;20209;-61
2022/02/02 06:06:23;;;;;;;24.63;4.63;;;6.60;3.10;;;;;;5051848;28;20217;-61
2022/02/02 06:08:51;;;;;;;21.23;3.83;;;6.60;1.00;;;;;;5052559;28;20277;-60
2022/02/02 06:11:22;;;;;;;21.93;4.10;;;6.60;1.00;;;;;;5053227;28;20224;-62
2022/02/02 06:13:55;;;;;;;14.63;3.47;;;6.60;1.00;;;;;;5056902;28;20210;-61
2022/02/02 06:16:23;;;;;;;19.90;3.93;;;6.50;1.00;;;;;;5056495;28;20224;-61
2022/02/02 06:18:55;;;;;;;10.90;2.83;;;6.50;1.00;;;;;;5051629;28;20703;-61
2022/02/02 06:21:26;;;;;;;20.87;2.80;;;6.50;1.00;;;;;;5051196;28;20265;-62
2022/02/02 06:24:00;;;;;;;13.07;2.40;;;6.50;1.00;;;;;;5051755;28;20256;-60
2022/02/02 06:26:29;;;;;;;18.47;3.03;;;6.60;1.00;;;;;;5051608;28;20279;-60
2022/02/02 06:28:58;;;;;;;10.77;2.33;;;6.60;1.00;;;;;;5051649;28;20220;-61
2022/02/02 06:31:27;;;;;;;15.67;2.50;;;6.50;1.00;;;;;;5051360;28;20237;-64
2022/02/02 06:34:01;;;;;;;7.37;2.03;;;6.60;1.00;;;;;;5048550;28;20301;-64
2022/02/02 06:36:30;;;;;;;14.77;2.27;;;6.60;1.00;;;;;;5051450;28;20210;-61
2022/02/02 06:38:58;;;;;;;8.10;1.90;;;6.50;1.00;;;;;;5054106;28;20240;-62
2022/02/02 06:41:30;;;;;;;9.50;2.23;;;6.40;1.00;;;;;;5060213;28;20266;-61
2022/02/02 06:43:57;;;;;;;5.50;1.50;;;6.40;1.00;;;;;;5072297;28;20212;-61
2022/02/02 06:46:29;;;;;;;7.33;1.83;;;6.30;99.90;;;;;;5071779;28;20255;-61
2022/02/02 06:48:56;;;;;;;10.97;2.10;;;6.30;1.00;;;;;;5071209;28;20927;-61
2022/02/02 06:51:31;;;;;;;13.30;2.37;;;6.30;1.00;;;;;;5070800;28;20667;-61
2022/02/02 06:54:02;;;;;;;7.87;1.97;;;6.30;1.00;;;;;;5071449;28;20281;-59
2022/02/02 06:56:44;;;;;;;7.50;1.93;;;6.20;1.00;;;;;;5070521;28;20721;-61
2022/02/02 06:59:24;;;;;;;13.10;2.43;;;6.20;1.00;;;;;;5071454;28;20240;-61
2022/02/02 07:05:09;;;;;;;10.20;2.10;;;6.20;1.00;;;;;;5070088;28;20204;-62
2022/02/02 07:07:51;;;;;;;13.17;2.77;;;6.20;1.00;;;;;;5070759;28;20201;-60
2022/02/02 07:10:25;;;;;;;12.73;2.77;;;6.10;1.00;;;;;;5071405;28;20223;-61
2022/02/02 07:13:12;;;;;;;9.87;1.57;;;6.10;1.00;;;;;;5071021;28;20277;-59
2022/02/02 07:15:58;;;;;;;16.33;2.23;;;6.00;1.00;;;;;;5070874;28;20205;-61
2022/02/02 07:18:34;;;;;;;8.03;1.90;;;6.10;1.00;;;;;;5070789;28;20213;-62
2022/02/02 07:21:15;;;;;;;12.00;1.93;;;6.00;1.00;;;;;;5070857;28;20224;-62
2022/02/02 07:29:18;;;;;;;13.73;2.37;;;5.80;56.20;;;;;;5051084;28;20205;-57
2022/02/02 07:31:57;;;;;;;12.33;3.27;;;5.60;91.80;;;;;;5051188;28;20232;-61
2022/02/02 07:34:38;;;;;;;8.67;2.13;;;5.60;95.20;;;;;;5049927;28;20702;-61
2022/02/02 07:37:10;;;;;;;13.37;2.67;;;5.50;95.30;;;;;;5045741;28;20216;-62
2022/02/02 07:39:40;;;;;;;14.87;2.57;;;5.50;91.00;;;;;;5050319;28;20287;-61
2022/02/02 07:42:09;;;;;;;15.43;2.70;;;5.50;90.30;;;;;;5050937;28;20237;-61
2022/02/02 07:44:40;;;;;;;16.60;3.57;;;5.60;94.60;;;;;;5051043;28;20202;-62
2022/02/02 07:47:10;;;;;;;19.57;2.90;;;5.60;92.70;;;;;;5051329;28;20209;-62
2022/02/02 07:49:41;;;;;;;18.50;3.13;;;5.60;96.50;;;;;;5051507;28;20198;-63
2022/02/02 07:52:10;;;;;;;15.77;3.60;;;5.70;99.90;;;;;;5050814;28;20723;-61
2022/02/02 07:54:40;;;;;;;17.63;3.57;;;5.80;99.90;;;;;;5051806;28;20606;-62
2022/02/02 07:57:12;;;;;;;17.47;3.63;;;5.80;99.90;;;;;;5051497;28;20194;-62
2022/02/02 07:59:53;;;;;;;17.23;3.53;;;5.90;99.90;;;;;;5051197;28;20260;-58
2022/02/02 08:02:24;;;;;;;17.97;3.93;;;5.90;99.90;;;;;;5050597;28;20312;-61
2022/02/02 08:04:50;;;;;;;20.83;4.33;;;6.00;99.90;;;;;;5050561;28;20220;-61
2022/02/02 08:07:24;;;;;;;21.00;3.37;;;5.90;99.90;;;;;;5050206;28;20206;-61
2022/02/02 08:10:04;;;;;;;17.00;3.20;;;5.90;99.90;;;;;;5051049;28;20216;-63
2022/02/02 08:12:33;;;;;;;19.90;4.10;;;6.00;99.90;;;;;;5050841;28;20236;-62
2022/02/02 08:15:03;;;;;;;20.40;3.70;;;6.00;99.90;;;;;;5053357;28;20202;-62
2022/02/02 08:17:30;;;;;;;15.17;3.57;;;6.00;99.90;;;;;;5053969;28;20206;-63
2022/02/02 08:19:56;;;;;;;18.53;2.97;;;5.90;99.90;;;;;;5053755;28;20202;-61
2022/02/02 08:22:24;;;;;;;20.37;3.70;;;5.90;99.90;;;;;;5053821;28;20712;-62
2022/02/02 08:24:50;;;;;;;24.07;3.53;;;6.00;97.30;;;;;;5053213;28;20211;-62
2022/02/02 08:27:18;;;;;;;20.70;4.30;;;6.10;83.10;;;;;;5053712;28;20590;-66
2022/02/02 08:29:46;;;;;;;18.30;3.43;;;6.10;67.40;;;;;;5054151;28;20214;-63
2022/02/02 08:32:15;;;;;;;16.47;3.17;;;6.20;54.10;;;;;;5053851;28;20715;-63
2022/02/02 08:34:46;;;;;;;18.27;3.93;;;6.20;41.80;;;;;;5053660;28;20241;-63
2022/02/02 08:37:14;;;;;;;17.63;3.67;;;6.30;37.90;;;;;;5053298;28;20259;-63
2022/02/02 08:40:00;;;;;;;21.33;4.13;;;6.40;31.00;;;;;;5053932;28;20205;-62
2022/02/02 08:42:31;;;;;;;24.67;4.23;;;6.40;24.60;;;;;;5053658;28;20707;-64
2022/02/02 08:45:15;;;;;;;15.83;3.33;;;6.50;26.00;;;;;;5054006;28;20186;-63
2022/02/02 08:47:51;;;;;;;16.87;3.63;;;6.60;31.50;;;;;;5054070;28;20629;-63
2022/02/02 08:50:25;;;;;;;25.63;3.73;;;6.70;1.00;;;;;;5054277;28;20208;-63
2022/02/02 08:52:56;;;;;;;20.00;3.87;;;6.80;1.00;;;;;;5053487;28;20235;-62
2022/02/02 08:55:47;;;;;;;21.43;4.43;;;6.80;1.00;;;;;;5053058;28;20209;-63
2022/02/02 08:58:21;;;;;;;23.00;4.00;;;6.90;1.00;;;;;;5052644;28;20213;-64
2022/02/02 09:00:49;;;;;;;19.70;3.80;;;6.90;1.00;;;;;;5053642;28;20620;-61
2022/02/02 09:05:58;;;;;;;21.17;4.03;;;6.90;1.00;;;;;;5052700;28;20288;-63
2022/02/02 09:08:29;;;;;;;20.23;3.33;;;7.00;1.00;;;;;;5053442;28;20211;-64
2022/02/02 09:24:48;;;;;;;17.83;3.73;;;6.90;1.00;;;;;;5052730;28;20241;-53
2022/02/02 09:33:10;;;;;;;15.83;3.33;;;7.00;1.00;;;;;;5059533;28;20216;-63
2022/02/02 09:35:39;;;;;;;15.73;3.27;;;7.10;1.00;;;;;;5052524;28;20210;-62
2022/02/02 09:38:05;;;;;;;21.60;4.40;;;7.20;1.00;;;;;;5059324;28;20214;-64
2022/02/02 09:41:12;;;;;;;23.40;4.40;;;7.20;1.00;;;;;;5064726;28;20213;-59
2022/02/02 09:43:34;;;;;;;19.03;3.87;;;7.20;1.00;;;;;;5060444;28;20599;-64
2022/02/02 09:46:09;;;;;;;18.97;4.30;;;7.30;1.00;;;;;;5059402;28;20229;-65
2022/02/02 09:48:44;;;;;;;18.83;4.00;;;7.40;1.00;;;;;;5052253;28;20235;-66
2022/02/02 09:53:59;;;;;;;18.40;4.03;;;7.60;1.00;;;;;;5107578;27;1200329;-66
2022/02/02 09:56:46;;;;;;;18.20;4.33;;;7.80;1.00;;;;;;5129188;28;20212;-64
2022/02/02 09:59:28;;;;;;;21.17;3.97;;;7.90;1.00;;;;;;5129480;28;20298;-64
2022/02/02 10:02:30;;;;;;;25.60;4.60;;;8.10;1.00;;;;;;5122693;28;20221;-62
2022/02/02 10:05:04;;;;;;;25.93;4.30;;;8.20;1.00;;;;;;5108394;28;20293;-62
2022/02/02 10:07:50;;;;;;;17.13;3.83;;;8.00;1.00;;;;;;5108781;28;20215;-62
2022/02/02 10:13:19;;;;;;;25.70;3.90;;;7.70;1.00;;;;;;5100834;28;20356;-61
2022/02/02 10:15:47;;;;;;;23.60;4.20;;;7.60;1.00;;;;;;5108265;28;20281;-61
2022/02/02 10:18:17;;;;;;;20.03;3.97;;;7.70;1.00;;;;;;5108798;28;20201;-60
2022/02/02 10:20:45;;;;;;;19.53;4.10;;;7.60;1.00;;;;;;5108386;28;20216;-60
2022/02/02 10:23:14;;;;;;;27.30;3.83;;;7.60;1.00;;;;;;5108805;28;20703;-60
2022/02/02 10:25:46;;;;;;;27.57;4.23;;;7.70;1.00;;;;;;5107606;28;20689;-63
2022/02/02 10:28:15;;;;;;;19.17;4.03;;;7.70;1.00;;;;;;5108534;28;20269;-62
2022/02/02 10:30:45;;;;;;;25.30;3.97;;;7.80;1.00;;;;;;5099401;28;20200;-62
2022/02/02 10:33:13;;;;;;;20.90;3.43;;;7.90;1.00;;;;;;5087991;28;20631;-62
2022/02/02 10:35:42;;;;;;;19.83;4.20;;;8.00;1.00;;;;;;5088146;28;20610;-62
2022/02/02 10:38:12;;;;;;;17.13;3.80;;;8.10;1.00;;;;;;5087417;28;20666;-62
2022/02/02 10:40:48;;;;;;;19.77;3.97;;;8.20;1.00;;;;;;5088205;28;20206;-62
2022/02/02 10:43:31;;;;;;;21.70;3.70;;;8.20;1.00;;;;;;5087348;28;20219;-62
2022/02/02 10:46:06;;;;;;;23.93;4.53;;;8.20;1.00;;;;;;5087297;28;20266;-63
2022/02/02 10:48:38;;;;;;;24.63;3.40;;;8.20;1.00;;;;;;5087127;28;20202;-63
2022/02/02 10:51:11;;;;;;;19.17;3.70;;;8.20;1.00;;;;;;5088629;28;20209;-61
2022/02/02 10:53:59;;;;;;;14.40;2.90;;;8.10;1.00;;;;;;5087586;28;20226;-63
2022/02/02 10:56:45;;;;;;;22.43;3.60;;;8.10;1.00;;;;;;5087599;28;20211;-64
2022/02/02 10:59:21;;;;;;;16.50;3.90;;;8.00;1.00;;;;;;5087668;28;20217;-65
2022/02/02 11:06:35;;;;;;;18.63;3.67;;;8.00;1.00;;;;;;5087378;28;20299;-59
2022/02/02 11:07:24;;;;;;;16.47;3.27;;;8.10;99.90;;;;;;5073531;28;20286;-63
2022/02/02 11:09:51;;;;;;;13.50;3.30;;;8.20;1.00;;;;;;5073867;28;20698;-63
2022/02/02 11:12:28;;;;;;;20.33;4.50;;;8.20;1.00;;;;;;5073805;28;20238;-62
2022/02/02 11:15:04;;;;;;;13.20;3.07;;;8.20;1.00;;;;;;5073710;28;20256;-62
2022/02/02 11:17:39;;;;;;;17.10;2.87;;;8.30;99.90;;;;;;5073067;28;20225;-62
2022/02/02 11:20:07;;;;;;;14.43;2.90;;;8.30;99.90;;;;;;5073674;28;20207;-60
2022/02/02 11:22:37;;;;;;;9.83;2.60;;;8.20;99.90;;;;;;5073296;28;20227;-63
2022/02/02 11:25:33;;;;;;;16.30;3.37;;;8.20;99.90;;;;;;5073149;28;20219;-62
2022/02/02 11:28:04;;;;;;;13.43;2.70;;;8.20;99.90;;;;;;5069248;28;20295;-60
2022/02/02 11:30:41;;;;;;;14.13;3.67;;;8.40;99.90;;;;;;5073390;28;20214;-62
2022/02/02 11:33:23;;;;;;;17.47;3.03;;;8.50;99.90;;;;;;5073022;28;20574;-63
2022/02/02 11:35:52;;;;;;;23.00;4.00;;;8.60;99.90;;;;;;5073628;28;20219;-61
2022/02/02 11:38:44;;;;;;;18.40;3.73;;;8.60;99.90;;;;;;5073626;28;20575;-63
2022/02/02 11:41:22;;;;;;;15.60;3.10;;;8.60;99.90;;;;;;5074221;28;20302;-62
2022/02/02 11:43:55;;;;;;;20.13;3.43;;;8.60;99.90;;;;;;5073490;28;20300;-63
2022/02/02 11:46:42;;;;;;;13.37;2.97;;;8.60;99.90;;;;;;5073728;28;20211;-60
2022/02/02 11:49:15;;;;;;;6.27;1.60;;;8.60;99.90;;;;;;5074187;28;20302;-61
2022/02/02 11:51:44;;;;;;;14.80;3.10;;;8.50;79.80;;;;;;5072929;28;20708;-61
2022/02/02 11:54:13;;;;;;;15.33;3.00;;;8.60;99.90;;;;;;5073087;28;20227;-61
2022/02/02 11:57:16;;;;;;;13.93;3.20;;;8.60;99.90;;;;;;5072569;28;20666;-62
2022/02/02 11:59:54;;;;;;;14.47;3.53;;;8.50;99.90;;;;;;5073484;28;20618;-63
2022/02/02 12:02:36;;;;;;;10.50;2.57;;;8.50;99.90;;;;;;5073190;28;20295;-63
2022/02/02 12:05:12;;;;;;;11.03;2.43;;;8.40;99.90;;;;;;5072356;28;20217;-66
2022/02/02 12:07:54;;;;;;;10.43;2.20;;;8.40;99.90;;;;;;5072015;28;20234;-62
2022/02/02 12:10:55;;;;;;;16.83;2.90;;;8.30;95.80;;;;;;5072868;28;20212;-62
2022/02/02 12:28:04;;;;;;;12.83;2.53;;;8.30;99.90;;;;;;5072143;28;20294;-61
2022/02/02 12:47:25;;;;;;;17.97;3.20;;;8.50;99.90;;;;;;5071645;28;20333;-59
2022/02/02 12:50:14;;;;;;;14.27;3.27;;;8.50;99.90;;;;;;5071767;28;20315;-61
2022/02/02 12:58:17;;;;;;;21.07;3.77;;;8.60;99.90;;;;;;5092159;28;20693;-61
2022/02/02 13:01:07;;;;;;;17.27;3.73;;;8.80;99.90;;;;;;5092136;28;20242;-63
2022/02/02 13:03:35;;;;;;;17.07;3.80;;;9.00;99.90;;;;;;5092267;28;20285;-63
2022/02/02 13:06:03;;;;;;;22.60;5.47;;;9.10;99.90;;;;;;5091845;28;20212;-63
2022/02/02 13:08:31;;;;;;;18.17;3.20;;;9.10;99.90;;;;;;5092599;28;20261;-62
2022/02/02 13:10:58;;;;;;;18.73;3.70;;;8.90;99.90;;;;;;5092818;28;20208;-62
2022/02/02 13:13:27;;;;;;;19.13;4.10;;;8.90;99.90;;;;;;5092991;28;20228;-62
2022/02/02 13:16:06;;;;;;;25.30;3.93;;;8.90;99.90;;;;;;5094261;28;20244;-64
2022/02/02 13:18:37;;;;;;;20.87;4.30;;;8.80;99.90;;;;;;5092189;28;20268;-63
2022/02/02 13:21:11;;;;;;;16.97;3.70;;;8.60;99.90;;;;;;5091744;28;20211;-63
2022/02/02 13:23:47;;;;;;;16.70;3.83;;;8.60;99.90;;;;;;5091243;28;20242;-64
2022/02/02 13:26:24;;;;;;;16.83;3.17;;;8.50;99.90;;;;;;5090773;28;20215;-62
2022/02/02 13:28:58;;;;;;;15.13;3.23;;;8.40;99.90;;;;;;5091321;28;20207;-62
2022/02/02 13:31:37;;;;;;;22.40;3.50;;;8.40;99.90;;;;;;5091502;28;20312;-62
2022/02/02 13:34:14;;;;;;;15.83;3.73;;;8.30;99.90;;;;;;5091075;28;20227;-62
2022/02/02 13:42:50;;;;;;;17.20;3.17;;;8.20;99.90;;;;;;5086948;28;20229;-63
2022/02/02 13:48:49;;;;;;;13.90;3.13;;;8.20;99.90;;;;;;5090943;28;20562;-62
2022/02/02 13:54:30;;;;;;;16.50;3.07;;;8.20;99.90;;;;;;5090742;28;20282;-64
2022/02/02 13:57:12;;;;;;;12.47;3.67;;;8.20;99.90;;;;;;5090753;28;20217;-60
2022/02/02 14:11:11;;;;;;;15.30;3.47;;;8.60;91.20;;;;;;5057112;28;20280;-62
2022/02/02 14:32:49;;;;;;;15.33;3.63;;;9.10;1.00;;;;;;5091171;28;20250;-63
2022/02/02 14:35:18;;;;;;;20.50;3.83;;;9.20;1.00;;;;;;5090739;28;20212;-63
2022/02/02 14:37:44;;;;;;;15.13;3.17;;;9.10;1.00;;;;;;5090308;28;20215;-64
2022/02/02 14:40:22;;;;;;;17.83;3.67;;;9.10;1.00;;;;;;5094061;28;20207;-63
2022/02/02 14:42:54;;;;;;;14.83;3.50;;;9.20;1.00;;;;;;5094437;28;20710;-64
2022/02/02 14:45:24;;;;;;;17.70;3.37;;;9.30;1.00;;;;;;5094411;28;20299;-64
2022/02/02 14:47:57;;;;;;;21.27;4.57;;;9.40;99.90;;;;;;5094204;28;20344;-64
2022/02/02 14:50:29;;;;;;;18.47;2.93;;;9.40;99.90;;;;;;5094299;28;20226;-63
2022/02/02 14:53:08;;;;;;;15.97;3.43;;;9.40;99.90;;;;;;5093108;28;20242;-62
2022/02/02 14:55:53;;;;;;;16.97;3.60;;;9.40;1.00;;;;;;5094260;28;20744;-61
2022/02/02 15:09:46;;;;;;;14.50;3.67;;;9.50;1.00;;;;;;5072655;28;20288;-57
2022/02/02 15:26:50;;;;;;;20.07;3.77;;;9.20;1.00;;;;;;5093202;28;20207;-60
2022/02/02 15:29:03;;;;;;;24.93;4.17;;;9.20;1.00;;;;;;5093576;28;20215;-60
2022/02/02 15:31:32;;;;;;;20.13;3.57;;;9.10;1.00;;;;;;5093572;28;20878;-59
2022/02/02 15:34:00;;;;;;;13.37;3.00;;;9.10;1.00;;;;;;5093605;28;20266;-58
2022/02/02 15:39:14;;;;;;;15.33;3.47;;;8.90;1.00;;;;;;5093986;28;20203;-59
2022/02/02 15:41:56;;;;;;;19.37;3.77;;;8.80;1.00;;;;;;5093741;28;20224;-59
2022/02/02 15:55:54;;;;;;;19.00;4.07;;;8.60;1.00;;;;;;5092963;28;20199;-58
2022/02/02 15:58:16;;;;;;;19.30;3.53;;;8.60;1.00;;;;;;5093243;28;20207;-58
2022/02/02 16:03:30;;;;;;;14.10;3.20;;;8.40;1.00;;;;;;5092961;28;20560;-63
2022/02/02 16:06:02;;;;;;;13.77;3.00;;;8.30;1.00;;;;;;5093311;28;20207;-57
2022/02/02 16:08:29;;;;;;;19.23;3.33;;;8.20;1.00;;;;;;5093363;28;20261;-60
2022/02/02 16:11:06;;;;;;;18.13;3.73;;;8.10;1.00;;;;;;5092811;28;20748;-59
2022/02/02 16:13:38;;;;;;;13.80;3.63;;;8.00;12.40;;;;;;5093018;28;20236;-59
2022/02/02 16:16:14;;;;;;;17.97;4.17;;;7.90;35.50;;;;;;5092745;28;20204;-57
2022/02/02 16:18:48;;;;;;;14.13;3.80;;;7.80;88.00;;;;;;5093237;28;20211;-58
2022/02/02 16:32:54;;;;;;;17.27;4.33;;;7.40;99.90;;;;;;5093551;28;20236;-57
2022/02/02 16:38:14;;;;;;;24.17;5.20;;;7.30;99.90;;;;;;5086923;28;20269;-55
2022/02/02 16:40:43;;;;;;;21.93;5.23;;;7.20;99.90;;;;;;5092790;28;20206;-56
2022/02/02 16:43:13;;;;;;;21.17;5.13;;;7.20;99.90;;;;;;5092906;28;20225;-59
2022/02/02 16:45:42;;;;;;;19.00;5.23;;;7.10;99.90;;;;;;5093619;28;20262;-59
2022/02/02 16:48:09;;;;;;;16.23;5.43;;;7.10;99.90;;;;;;5081733;28;20208;-59
2022/02/02 16:50:40;;;;;;;19.80;5.83;;;7.00;99.90;;;;;;5092330;28;20209;-61
2022/02/02 16:53:12;;;;;;;19.57;7.20;;;7.00;99.90;;;;;;5091513;28;20271;-60
2022/02/02 16:55:46;;;;;;;20.43;6.77;;;7.00;99.90;;;;;;5092298;28;20548;-59
2022/02/02 17:31:41;;;;;;;17.93;4.40;;;6.40;1.00;;;;;;5065976;28;20646;-59
2022/02/02 17:34:17;;;;;;;16.23;4.43;;;6.40;1.00;;;;;;5091483;28;20263;-56
2022/02/02 17:36:49;;;;;;;16.30;4.30;;;6.30;1.00;;;;;;5090939;28;20315;-59
2022/02/02 17:39:19;;;;;;;11.07;3.57;;;6.30;1.00;;;;;;5091528;28;20208;-58
2022/02/02 17:42:27;;;;;;;16.43;4.60;;;6.30;1.00;;;;;;5091425;28;20224;-59
2022/02/02 17:45:23;;;;;;;18.97;4.67;;;6.30;1.00;;;;;;5091368;28;20204;-58
2022/02/02 18:12:42;;;;;;;18.10;6.03;;;6.10;1.00;;;;;;5091554;28;20299;-61
2022/02/02 18:20:38;;;;;;;19.10;5.70;;;6.00;1.00;;;;;;5087595;28;20203;-62
2022/02/02 18:23:12;;;;;;;22.20;5.77;;;6.00;1.00;;;;;;5095359;28;20228;-61
2022/02/02 18:25:45;;;;;;;18.77;5.77;;;5.90;1.00;;;;;;5095625;28;20272;-61
2022/02/02 18:28:20;;;;;;;18.50;5.57;;;5.80;1.00;;;;;;5094540;28;20191;-64
2022/02/02 18:30:58;;;;;;;18.07;5.03;;;5.80;1.00;;;;;;5095331;28;20239;-59
2022/02/02 18:33:35;;;;;;;16.77;5.20;;;5.80;1.00;;;;;;5094648;28;20224;-62
2022/02/02 18:36:17;;;;;;;14.97;5.33;;;5.80;1.00;;;;;;5094876;28;20251;-60
2022/02/02 18:47:21;;;;;;;16.07;4.90;;;5.80;1.00;;;;;;5069067;28;20770;-61
2022/02/02 18:50:02;;;;;;;20.57;6.63;;;5.80;1.00;;;;;;5094628;28;20208;-61
2022/02/02 18:55:25;;;;;;;24.67;6.67;;;5.90;1.00;;;;;;5094495;28;20230;-62
2022/02/02 18:58:03;;;;;;;25.60;5.77;;;5.90;1.00;;;;;;5094365;28;20204;-63
2022/02/02 19:00:47;;;;;;;17.00;5.57;;;5.90;1.00;;;;;;5094497;28;20210;-63
2022/02/02 19:06:41;;;;;;;23.20;5.83;;;5.90;1.00;;;;;;5094589;28;20203;-64
2022/02/02 19:56:30;;;;;;;22.83;6.10;;;6.10;42.80;;;;;;5129368;27;20232;-63
2022/02/02 20:01:53;;;;;;;20.43;6.80;;;6.20;56.30;;;;;;5129846;28;20299;-64
2022/02/02 20:04:37;;;;;;;15.47;6.43;;;6.20;61.90;;;;;;5130796;27;20206;-63
2022/02/02 20:07:23;;;;;;;17.57;5.80;;;6.20;77.40;;;;;;5133049;27;20218;-62
2022/02/02 20:12:34;;;;;;;17.00;6.27;;;6.20;99.90;;;;;;5126906;27;20640;-60
2022/02/02 20:15:01;;;;;;;15.67;6.33;;;6.30;99.90;;;;;;5131442;27;20256;-65
2022/02/02 20:17:28;;;;;;;23.40;6.83;;;6.30;99.90;;;;;;5132112;27;20210;-62
2022/02/02 20:19:59;;;;;;;18.37;6.47;;;6.30;99.90;;;;;;5131322;27;20203;-62
2022/02/02 20:22:30;;;;;;;19.90;6.60;;;6.30;99.90;;;;;;5129143;27;20223;-63
2022/02/02 20:24:59;;;;;;;18.67;6.60;;;6.40;99.90;;;;;;5128765;27;20210;-60
2022/02/02 20:27:28;;;;;;;27.00;7.70;;;6.40;99.90;;;;;;5128229;27;20203;-60
2022/02/02 20:29:55;;;;;;;18.97;6.93;;;6.50;99.90;;;;;;5128236;27;20581;-61
2022/02/02 20:32:22;;;;;;;18.37;7.80;;;6.50;99.90;;;;;;5128420;27;20697;-61
2022/02/02 20:34:49;;;;;;;20.03;7.40;;;6.50;99.90;;;;;;5128921;27;20203;-62
2022/02/02 20:37:18;;;;;;;17.10;6.67;;;6.40;99.90;;;;;;5128167;27;20221;-64
2022/02/02 20:39:52;;;;;;;19.97;7.63;;;6.50;99.90;;;;;;5128232;27;20234;-60
2022/02/02 20:42:26;;;;;;;21.97;7.63;;;6.50;99.90;;;;;;5128393;27;20786;-61
2022/02/02 20:45:11;;;;;;;16.03;7.73;;;6.50;99.90;;;;;;5118105;27;20696;-61
2022/02/02 21:04:23;;;;;;;21.43;8.47;;;6.60;99.90;;;;;;5114307;28;20313;-61
2022/02/02 21:07:05;;;;;;;19.87;8.60;;;6.60;99.90;;;;;;5113859;28;20208;-62
2022/02/02 21:09:39;;;;;;;18.33;9.77;;;6.70;99.90;;;;;;5113866;28;20765;-60
2022/02/02 21:14:59;;;;;;;29.07;9.93;;;6.70;99.90;;;;;;5114168;28;20308;-62
2022/02/02 21:17:27;;;;;;;26.33;9.93;;;6.70;99.90;;;;;;5113758;28;20298;-61